KIAG/IAG METAR and TAF weather

Enter ICAO airport designator
Station Type Date Time Source
KIAG METAR 2022/12/04 10:53 UTC NOAA

KIAG 041053Z AUTO 23009KT 10SM CLR M02/M07 A3023 RMK AO2 SLP249 T10221067


Station Type Date Time Source
KIAG Decoded METAR 2022/12/04 10:53 UTC NOAA

NIAGARA FALLS INTERNATIONAL AIRPORT, NY, United States (KIAG) 43-07N 078-56W 182M
Dec 04, 2022 - 05:53 AM EST / 2022.12.04 1053 UTC
Wind: from the SW (230 degrees) at 10 MPH (9 KT):0
Visibility: 10 mile(s):0
Sky conditions: clear
Temperature: 28.0 F (-2.2 C)
Windchill: 19 F (-7 C):1
Dew Point: 19.9 F (-6.7 C)
Relative Humidity: 71%
Pressure (altimeter): 30.23 in. Hg (1023 hPa)
ob: KIAG 041053Z AUTO 23009KT 10SM CLR M02/M07 A3023 RMK AO2 SLP249 T10221067
cycle: 11

Station Type Date Time Source
KIAG TAF 2022/12/04 12:36 UTC NOAA

TAF KIAG 041133Z 0412/0512 23009KT P6SM SKC
FM041600 24009KT P6SM SCT030 BKN200
FM041900 24012G30KT P6SM BKN035
FM050000 23013G23KT P6SM SCT035
FM050600 22015G27KT P6SM FEW250

Example: see airport list